createdAt,value
2023-04-16T00:00:55.276Z,54.35
2023-04-16T00:03:21.793Z,54.72
2023-04-16T00:05:48.212Z,54.88
2023-04-16T00:08:14.592Z,55.00
2023-04-16T00:10:41.321Z,52.55
2023-04-16T00:13:07.636Z,54.22
2023-04-16T00:15:34.056Z,56.10
2023-04-16T00:18:00.410Z,54.70
2023-04-16T00:20:26.785Z,53.35
2023-04-16T00:22:53.175Z,54.08
2023-04-16T00:25:19.560Z,52.70
2023-04-16T00:27:45.869Z,53.47
2023-04-16T00:30:12.457Z,55.08
2023-04-16T00:32:38.874Z,55.92
2023-04-16T00:35:05.738Z,57.72
2023-04-16T00:37:32.258Z,56.45
2023-04-16T00:39:58.737Z,58.38
2023-04-16T00:42:25.049Z,59.40
2023-04-16T00:44:51.527Z,58.85
2023-04-16T00:47:19.753Z,59.72
2023-04-16T00:49:46.643Z,60.58
2023-04-16T00:52:13.041Z,61.20
2023-04-16T00:54:39.848Z,60.95
2023-04-16T00:57:06.229Z,59.88
2023-04-16T00:59:32.764Z,60.13
2023-04-16T01:01:59.206Z,59.10
2023-04-16T01:04:25.735Z,59.10
2023-04-16T01:06:52.088Z,58.22
2023-04-16T01:09:18.515Z,59.03
2023-04-16T01:11:44.839Z,58.65
2023-04-16T01:14:11.372Z,59.60
2023-04-16T01:16:37.681Z,56.05
2023-04-16T01:19:04.010Z,59.28
2023-04-16T01:21:30.319Z,58.15
2023-04-16T01:23:56.614Z,57.35
2023-04-16T01:26:22.997Z,58.40
2023-04-16T01:28:49.300Z,58.08
2023-04-16T01:31:15.646Z,58.63
2023-04-16T01:33:42.011Z,59.08
2023-04-16T01:36:08.343Z,58.47
2023-04-16T01:38:34.709Z,59.92
2023-04-16T01:41:01.067Z,57.83
2023-04-16T01:43:27.393Z,56.97
2023-04-16T01:46:12.181Z,57.65
2023-04-16T01:48:38.586Z,55.58
2023-04-16T01:51:05.335Z,55.15
2023-04-16T01:53:31.670Z,56.03
2023-04-16T01:55:57.962Z,50.75
2023-04-16T01:58:24.269Z,54.53
2023-04-16T02:00:50.622Z,53.92
2023-04-16T02:03:17.087Z,53.20
2023-04-16T02:05:43.506Z,49.53
2023-04-16T02:08:09.833Z,49.70
2023-04-16T02:10:36.149Z,47.22
2023-04-16T02:13:02.467Z,50.50
2023-04-16T02:15:28.856Z,48.75
2023-04-16T02:17:55.174Z,47.72
2023-04-16T02:20:21.537Z,48.20
2023-04-16T02:22:47.950Z,47.53
2023-04-16T02:25:14.313Z,46.30
2023-04-16T02:27:40.632Z,46.85
2023-04-16T02:30:07.640Z,45.97
2023-04-16T02:32:33.947Z,45.50
2023-04-16T02:35:00.247Z,44.72
2023-04-16T02:37:26.545Z,43.05
2023-04-16T02:39:52.859Z,43.83
2023-04-16T02:42:19.156Z,44.42
2023-04-16T02:44:45.461Z,44.78
2023-04-16T02:47:11.752Z,42.65
2023-04-16T02:49:38.071Z,42.20
2023-04-16T02:52:04.553Z,42.53
2023-04-16T02:54:30.845Z,42.53
2023-04-16T02:56:57.160Z,41.17
2023-04-16T02:59:23.444Z,39.17
2023-04-16T03:01:49.923Z,37.22
2023-04-16T03:04:16.479Z,38.90
2023-04-16T03:06:42.819Z,36.63
2023-04-16T03:09:09.413Z,38.00
2023-04-16T03:11:35.920Z,37.00
2023-04-16T03:14:02.236Z,38.50
2023-04-16T03:16:28.545Z,38.10
2023-04-16T03:18:54.856Z,38.08
2023-04-16T03:21:21.170Z,37.67
2023-04-16T03:23:47.479Z,36.75
2023-04-16T03:26:13.785Z,38.78
2023-04-16T03:28:40.072Z,39.35
2023-04-16T03:31:06.442Z,40.42
2023-04-16T03:33:32.799Z,41.70
2023-04-16T03:35:59.228Z,45.22
2023-04-16T03:38:26.003Z,45.83
2023-04-16T03:40:52.310Z,48.30
2023-04-16T03:43:18.633Z,49.45
2023-04-16T03:45:45.648Z,50.88
2023-04-16T03:48:12.153Z,52.00
2023-04-16T03:50:38.610Z,51.80
2023-04-16T03:53:04.931Z,52.33
2023-04-16T03:55:31.232Z,51.83
2023-04-16T03:57:57.532Z,49.80
2023-04-16T04:00:23.852Z,50.88
2023-04-16T04:02:50.290Z,49.25
2023-04-16T04:05:16.741Z,52.03
2023-04-16T04:07:43.044Z,50.95
2023-04-16T04:10:09.593Z,50.40
2023-04-16T04:12:35.888Z,52.10
2023-04-16T04:15:02.205Z,51.47
2023-04-16T04:17:28.523Z,51.33
2023-04-16T04:22:26.620Z,54.13
2023-04-16T04:24:52.937Z,55.20
2023-04-16T04:27:19.260Z,54.22
2023-04-16T04:29:45.571Z,54.03
2023-04-16T04:32:11.885Z,54.95
2023-04-16T04:34:38.201Z,56.25
2023-04-16T04:37:04.545Z,54.40
2023-04-16T04:39:30.861Z,54.72
2023-04-16T04:41:57.439Z,55.08
2023-04-16T04:44:23.753Z,53.60
2023-04-16T04:46:50.035Z,54.05
2023-04-16T04:49:16.355Z,51.55
2023-04-16T04:51:42.652Z,48.75
2023-04-16T04:54:08.957Z,48.38
2023-04-16T04:56:35.268Z,48.65
2023-04-16T04:59:01.568Z,47.97
2023-04-16T05:01:27.946Z,50.28
2023-04-16T05:03:54.280Z,48.20
2023-04-16T05:06:20.668Z,51.53
2023-04-16T05:08:46.970Z,49.28
2023-04-16T05:11:13.297Z,49.17
2023-04-16T05:13:39.613Z,49.03
2023-04-16T05:16:06.438Z,49.67
2023-04-16T05:18:32.783Z,49.85
2023-04-16T05:20:59.110Z,51.03
2023-04-16T05:23:25.431Z,50.45
2023-04-16T05:25:51.749Z,52.42
2023-04-16T05:28:18.036Z,52.28
2023-04-16T05:30:44.409Z,53.75
2023-04-16T05:33:10.759Z,51.22
2023-04-16T05:35:37.071Z,50.53
2023-04-16T05:38:03.486Z,52.25
2023-04-16T05:40:30.130Z,48.60
2023-04-16T05:42:56.443Z,48.72
2023-04-16T05:45:22.735Z,49.50
2023-04-16T05:47:49.142Z,50.65
2023-04-16T05:50:15.576Z,48.85
2023-04-16T05:52:41.888Z,48.95
2023-04-16T05:55:08.606Z,47.72
2023-04-16T05:57:34.914Z,49.10
2023-04-16T06:00:01.218Z,48.55
2023-04-16T06:02:27.635Z,50.05
2023-04-16T06:04:54.084Z,46.58
2023-04-16T06:07:20.401Z,48.80
2023-04-16T06:09:46.705Z,48.38
2023-04-16T06:12:13.084Z,47.35
2023-04-16T06:14:39.392Z,48.22
2023-04-16T06:17:05.715Z,47.33
2023-04-16T06:19:32.048Z,44.78
2023-04-16T06:21:58.356Z,47.15
2023-04-16T06:24:24.678Z,43.55
2023-04-16T06:26:51.034Z,42.97
2023-04-16T06:29:17.362Z,44.85
2023-04-16T06:31:43.697Z,39.95
2023-04-16T06:34:10.280Z,38.28
2023-04-16T06:36:36.578Z,38.55
2023-04-16T06:39:03.000Z,39.65
2023-04-16T06:41:29.923Z,39.50
2023-04-16T06:43:56.227Z,41.63
2023-04-16T06:46:22.555Z,39.92
2023-04-16T06:48:49.024Z,37.65
2023-04-16T06:51:15.364Z,37.60
2023-04-16T06:53:41.753Z,38.38
2023-04-16T06:56:08.260Z,38.20
2023-04-16T06:58:34.580Z,37.97
2023-04-16T07:01:01.000Z,37.90
2023-04-16T07:03:27.520Z,40.17
2023-04-16T07:05:53.991Z,40.72
2023-04-16T07:08:20.311Z,40.65
2023-04-16T07:10:46.613Z,43.72
2023-04-16T07:13:12.934Z,41.35
2023-04-16T07:15:39.250Z,37.08
2023-04-16T07:18:05.579Z,39.00
2023-04-16T07:20:31.933Z,37.30
2023-04-16T07:22:58.263Z,37.55
2023-04-16T07:25:24.748Z,38.00
2023-04-16T07:27:51.041Z,38.55
2023-04-16T07:30:17.359Z,38.60
2023-04-16T07:32:43.788Z,38.25
2023-04-16T07:35:10.121Z,38.13
2023-04-16T07:37:36.422Z,38.00
2023-04-16T07:40:02.775Z,37.47
2023-04-16T07:42:29.081Z,33.38
2023-04-16T07:44:55.544Z,37.60
2023-04-16T07:47:21.912Z,38.40
2023-04-16T07:49:49.059Z,38.00
2023-04-16T07:52:15.490Z,35.80
2023-04-16T07:54:41.829Z,36.10
2023-04-16T07:57:08.138Z,36.92
2023-04-16T07:59:34.432Z,37.47
2023-04-16T08:02:00.879Z,36.92
2023-04-16T08:04:27.458Z,36.13
2023-04-16T08:06:54.244Z,35.05
2023-04-16T08:09:22.755Z,34.78
2023-04-16T08:11:49.479Z,37.45
2023-04-16T08:14:18.868Z,35.10
2023-04-16T08:16:45.231Z,36.78
2023-04-16T08:19:11.784Z,35.50
2023-04-16T08:21:38.424Z,35.78
2023-04-16T08:24:04.861Z,37.45
2023-04-16T08:26:31.217Z,39.28
2023-04-16T08:28:57.525Z,39.20
2023-04-16T08:31:24.044Z,37.03
2023-04-16T08:33:50.358Z,34.72
2023-04-16T08:36:16.682Z,35.10
2023-04-16T08:38:42.962Z,38.00
2023-04-16T08:41:12.402Z,35.78
2023-04-16T08:43:43.884Z,33.90
2023-04-16T08:46:11.493Z,33.13
2023-04-16T08:48:38.721Z,33.17
2023-04-16T08:51:07.147Z,31.20
2023-04-16T08:53:36.385Z,32.20
2023-04-16T08:56:09.717Z,30.98
2023-04-16T08:58:37.441Z,31.75
2023-04-16T09:01:03.993Z,31.80
2023-04-16T09:03:35.665Z,31.70
2023-04-16T09:06:04.303Z,30.83
2023-04-16T09:08:31.890Z,32.88
2023-04-16T09:10:59.312Z,31.13
2023-04-16T09:13:25.661Z,33.42
2023-04-16T09:15:53.609Z,33.33
2023-04-16T09:18:20.412Z,32.78
2023-04-16T09:20:48.585Z,31.98
2023-04-16T09:23:14.906Z,32.28
2023-04-16T09:25:41.220Z,32.15
2023-04-16T09:28:07.545Z,31.73
2023-04-16T09:30:33.865Z,32.60
2023-04-16T09:33:19.844Z,31.13
2023-04-16T09:35:50.951Z,31.67
2023-04-16T09:38:18.387Z,30.55
2023-04-16T09:40:44.907Z,30.42
2023-04-16T09:43:17.450Z,30.75
2023-04-16T09:45:54.766Z,29.92
2023-04-16T09:48:31.938Z,30.30
2023-04-16T09:50:59.737Z,30.23
2023-04-16T09:53:31.555Z,28.80
2023-04-16T09:56:05.252Z,29.05
2023-04-16T09:58:31.903Z,27.77
2023-04-16T10:01:12.243Z,26.80
2023-04-16T10:03:40.412Z,27.58
2023-04-16T10:06:13.763Z,29.55
2023-04-16T10:08:53.591Z,28.75
2023-04-16T10:11:20.685Z,26.67
2023-04-16T10:13:47.503Z,27.25
2023-04-16T10:16:13.893Z,26.67
2023-04-16T10:18:42.244Z,26.67
2023-04-16T10:21:09.095Z,27.33
2023-04-16T10:23:35.395Z,26.88
2023-04-16T10:26:02.308Z,26.20
2023-04-16T10:28:28.789Z,26.90
2023-04-16T10:30:57.372Z,26.10
2023-04-16T10:33:27.757Z,27.23
2023-04-16T10:36:16.797Z,26.25
2023-04-16T10:38:53.473Z,26.95
2023-04-16T10:41:20.414Z,25.45
2023-04-16T10:43:49.288Z,28.08
2023-04-16T10:46:19.335Z,26.60
2023-04-16T10:48:50.260Z,27.02
2023-04-16T10:51:25.778Z,26.33
2023-04-16T10:56:26.681Z,27.42
2023-04-16T10:58:54.585Z,27.38
2023-04-16T11:01:29.769Z,29.58
2023-04-16T11:03:56.375Z,26.48
2023-04-16T11:06:27.042Z,27.17
2023-04-16T11:08:55.231Z,27.98
2023-04-16T11:11:22.877Z,28.63
2023-04-16T11:13:49.331Z,26.73
2023-04-16T11:16:16.974Z,29.30
2023-04-16T11:18:51.387Z,29.40
2023-04-16T11:21:19.170Z,30.00
2023-04-16T11:23:49.829Z,30.63
2023-04-16T11:26:27.559Z,30.58
2023-04-16T11:28:55.500Z,29.58
2023-04-16T11:31:22.546Z,30.67
2023-04-16T11:33:49.396Z,29.85
2023-04-16T11:36:15.726Z,28.00
2023-04-16T11:38:42.083Z,29.50
2023-04-16T11:41:09.331Z,30.35
2023-04-16T11:43:35.736Z,28.40
2023-04-16T11:46:10.296Z,29.58
2023-04-16T11:48:47.663Z,28.42
2023-04-16T11:51:14.254Z,28.70
2023-04-16T11:53:54.021Z,27.60
2023-04-16T11:56:32.128Z,27.77
2023-04-16T11:59:13.225Z,28.17
2023-04-16T12:01:41.409Z,26.95
2023-04-16T12:04:09.029Z,27.60
2023-04-16T12:06:35.649Z,28.67
2023-04-16T12:09:22.511Z,28.10
2023-04-16T12:11:48.832Z,27.42
2023-04-16T12:14:15.145Z,27.23
2023-04-16T12:16:41.564Z,27.65
2023-04-16T12:19:12.286Z,27.95
2023-04-16T12:21:41.255Z,29.05
2023-04-16T12:24:09.556Z,27.40
2023-04-16T12:26:44.187Z,27.50
2023-04-16T12:29:26.578Z,28.42
2023-04-16T12:31:54.166Z,27.65
2023-04-16T12:34:21.562Z,27.52
2023-04-16T12:39:33.272Z,25.02
2023-04-16T12:41:59.572Z,26.15
2023-04-16T12:44:26.343Z,26.60
2023-04-16T12:46:52.658Z,27.75
2023-04-16T12:49:18.958Z,25.98
2023-04-16T12:51:45.292Z,25.42
2023-04-16T12:54:11.601Z,26.20
2023-04-16T12:56:37.970Z,25.35
2023-04-16T12:59:04.313Z,25.10
2023-04-16T13:01:30.695Z,25.35
2023-04-16T13:03:57.281Z,24.02
2023-04-16T13:06:23.836Z,24.13
2023-04-16T13:08:50.136Z,24.77
2023-04-16T13:11:16.485Z,23.83
2023-04-16T13:13:42.775Z,25.27
2023-04-16T13:16:09.095Z,24.27
2023-04-16T13:18:36.152Z,23.33
2023-04-16T13:21:02.567Z,24.20
2023-04-16T13:23:29.109Z,22.50
2023-04-16T13:25:55.421Z,23.45
2023-04-16T13:28:21.732Z,21.65
2023-04-16T13:30:48.252Z,23.80
2023-04-16T13:33:14.555Z,22.20
2023-04-16T13:35:40.883Z,23.60
2023-04-16T13:38:07.313Z,22.65
2023-04-16T13:40:33.634Z,22.25
2023-04-16T13:42:59.954Z,23.00
2023-04-16T13:45:26.580Z,23.65
2023-04-16T13:47:53.045Z,22.42
2023-04-16T13:50:19.503Z,23.15
2023-04-16T13:52:45.872Z,22.90
2023-04-16T13:55:12.194Z,22.88
2023-04-16T13:57:38.806Z,24.08
2023-04-16T14:00:05.831Z,23.67
2023-04-16T14:02:32.250Z,22.90
2023-04-16T14:04:58.672Z,23.52
2023-04-16T14:07:24.980Z,22.60
2023-04-16T14:09:51.295Z,23.27
2023-04-16T14:12:17.622Z,24.15
2023-04-16T14:14:43.939Z,23.38
2023-04-16T14:17:10.368Z,23.63
2023-04-16T14:19:36.686Z,24.00
2023-04-16T14:22:02.983Z,22.65
2023-04-16T14:24:29.335Z,24.25
2023-04-16T14:26:55.874Z,25.55
2023-04-16T14:29:22.210Z,24.90
2023-04-16T14:31:48.547Z,24.67
2023-04-16T14:34:14.876Z,25.65
2023-04-16T14:36:41.200Z,25.67
2023-04-16T14:39:07.645Z,24.08
2023-04-16T14:41:34.000Z,25.45
2023-04-16T14:44:00.319Z,24.13
2023-04-16T14:46:26.614Z,23.85
2023-04-16T14:48:53.212Z,22.98
2023-04-16T14:51:19.539Z,23.40
2023-04-16T14:53:45.863Z,21.85
2023-04-16T14:56:12.161Z,22.02
2023-04-16T14:58:39.446Z,22.38
2023-04-16T15:01:05.906Z,22.10
2023-04-16T15:03:32.587Z,21.30
2023-04-16T15:05:59.396Z,21.38
2023-04-16T15:08:25.768Z,20.13
2023-04-16T15:10:52.093Z,19.42
2023-04-16T15:13:18.514Z,20.13
2023-04-16T15:15:44.889Z,20.05
2023-04-16T15:18:11.273Z,19.58
2023-04-16T15:20:37.593Z,19.88
2023-04-16T15:23:04.084Z,19.67
2023-04-16T15:25:30.381Z,19.70
2023-04-16T15:27:56.706Z,19.55
2023-04-16T15:30:22.999Z,19.73
2023-04-16T15:32:49.319Z,20.38
2023-04-16T15:35:15.651Z,20.33
2023-04-16T15:37:41.974Z,20.42
2023-04-16T15:40:08.444Z,19.40
2023-04-16T15:42:34.780Z,20.13
2023-04-16T15:45:01.106Z,20.67
2023-04-16T15:47:27.422Z,19.23
2023-04-16T15:49:53.805Z,18.90
2023-04-16T15:52:20.255Z,19.23
2023-04-16T15:54:46.625Z,19.10
2023-04-16T15:57:12.922Z,19.33
2023-04-16T15:59:39.226Z,19.27
2023-04-16T16:02:05.618Z,18.98
2023-04-16T16:04:32.515Z,18.90
2023-04-16T16:06:58.958Z,19.10
2023-04-16T16:09:25.301Z,18.73
2023-04-16T16:11:55.218Z,18.55
2023-04-16T16:14:22.325Z,19.42
2023-04-16T16:16:48.945Z,19.90
2023-04-16T16:19:15.336Z,18.83
2023-04-16T16:21:41.643Z,18.42
2023-04-16T16:24:07.938Z,19.50
2023-04-16T16:26:34.232Z,19.08
2023-04-16T16:29:01.954Z,18.02
2023-04-16T16:31:28.300Z,19.20
2023-04-16T16:33:54.612Z,18.67
2023-04-16T16:36:21.464Z,19.83
2023-04-16T16:38:47.751Z,19.98
2023-04-16T16:41:14.188Z,20.05
2023-04-16T16:43:40.480Z,18.48
2023-04-16T16:46:06.786Z,19.02
2023-04-16T16:48:33.493Z,19.05
2023-04-16T16:50:59.791Z,20.25
2023-04-16T16:53:26.069Z,19.70
2023-04-16T16:55:52.348Z,19.85
2023-04-16T16:58:18.652Z,20.90
2023-04-16T17:00:44.987Z,21.27
2023-04-16T17:03:11.573Z,21.20
2023-04-16T17:05:38.059Z,21.73
2023-04-16T17:08:04.508Z,29.45
2023-04-16T17:10:30.799Z,22.30
2023-04-16T17:12:57.110Z,23.00
2023-04-16T17:15:23.447Z,21.30
2023-04-16T17:17:49.964Z,20.08
2023-04-16T17:20:16.392Z,20.20
2023-04-16T17:22:42.718Z,19.95
2023-04-16T17:25:09.318Z,22.83
2023-04-16T17:27:35.671Z,21.65
2023-04-16T17:30:03.729Z,21.63
2023-04-16T17:32:30.715Z,21.38
2023-04-16T17:34:57.223Z,21.15
2023-04-16T17:37:23.568Z,20.58
2023-04-16T17:39:50.008Z,21.92
2023-04-16T17:42:16.399Z,22.17
2023-04-16T17:44:42.851Z,22.15
2023-04-16T17:47:09.224Z,21.42
2023-04-16T17:49:35.529Z,21.20
2023-04-16T17:52:01.942Z,21.02
2023-04-16T17:54:28.384Z,21.13
2023-04-16T17:56:54.688Z,21.98
2023-04-16T17:59:21.648Z,22.98
2023-04-16T18:01:48.036Z,23.30
2023-04-16T18:04:14.675Z,23.70
2023-04-16T18:06:41.389Z,22.65
2023-04-16T18:09:07.716Z,23.40
2023-04-16T18:11:34.009Z,21.45
2023-04-16T18:14:00.315Z,20.85
2023-04-16T18:16:26.765Z,24.30
2023-04-16T18:18:53.120Z,28.98
2023-04-16T18:21:19.758Z,24.23
2023-04-16T18:23:46.084Z,25.60
2023-04-16T18:26:12.849Z,28.17
2023-04-16T18:28:39.216Z,26.73
2023-04-16T18:31:05.589Z,24.15
2023-04-16T18:36:01.723Z,24.05
2023-04-16T18:38:28.171Z,23.55
2023-04-16T18:40:54.477Z,22.67
2023-04-16T18:43:20.790Z,24.15
2023-04-16T18:45:47.091Z,23.95
2023-04-16T18:48:13.412Z,23.52
2023-04-16T18:50:39.706Z,23.55
2023-04-16T18:53:06.179Z,25.08
2023-04-16T18:55:32.488Z,24.55
2023-04-16T18:57:58.802Z,25.00
2023-04-16T19:00:25.249Z,25.95
2023-04-16T19:02:51.651Z,25.48
2023-04-16T19:05:18.123Z,24.75
2023-04-16T19:07:44.425Z,25.02
2023-04-16T19:10:10.848Z,26.50
2023-04-16T19:12:37.167Z,26.70
2023-04-16T19:15:04.578Z,24.83
2023-04-16T19:17:30.888Z,25.90
2023-04-16T19:19:57.344Z,24.45
2023-04-16T19:22:23.672Z,23.42
2023-04-16T19:24:49.975Z,24.13
2023-04-16T19:27:16.304Z,24.02
2023-04-16T19:29:42.603Z,25.20
2023-04-16T19:32:08.997Z,26.00
2023-04-16T19:34:35.345Z,25.33
2023-04-16T19:37:01.644Z,25.73
2023-04-16T19:39:28.071Z,26.17
2023-04-16T19:41:54.360Z,24.55
2023-04-16T19:44:20.695Z,25.13
2023-04-16T19:46:46.992Z,23.98
2023-04-16T19:49:13.541Z,25.67
2023-04-16T19:51:39.958Z,24.75
2023-04-16T19:54:06.275Z,25.80
2023-04-16T19:56:32.627Z,26.20
2023-04-16T19:58:58.927Z,26.73
2023-04-16T20:01:25.253Z,24.70
2023-04-16T20:03:51.627Z,25.48
2023-04-16T20:06:17.971Z,25.65
2023-04-16T20:08:44.266Z,26.17
2023-04-16T20:11:10.636Z,25.15
2023-04-16T20:13:36.939Z,26.00
2023-04-16T20:16:03.532Z,26.17
2023-04-16T20:18:29.844Z,27.35
2023-04-16T20:20:56.156Z,25.40
2023-04-16T20:23:22.453Z,26.00
2023-04-16T20:25:48.780Z,25.30
2023-04-16T20:28:15.068Z,26.00
2023-04-16T20:30:41.605Z,25.35
2023-04-16T20:33:08.504Z,25.92
2023-04-16T20:35:34.977Z,25.33
2023-04-16T20:38:01.376Z,25.63
2023-04-16T20:40:28.072Z,25.08
2023-04-16T20:42:54.381Z,24.80
2023-04-16T20:45:20.673Z,25.08
2023-04-16T20:47:47.074Z,24.75
2023-04-16T20:50:13.535Z,24.38
2023-04-16T20:52:39.847Z,24.58
2023-04-16T20:55:06.814Z,24.02
2023-04-16T20:57:33.115Z,23.55
2023-04-16T20:59:59.419Z,22.90
2023-04-16T21:02:26.011Z,23.88
2023-04-16T21:04:52.538Z,24.42
2023-04-16T21:07:18.901Z,23.73
2023-04-16T21:09:45.216Z,22.98
2023-04-16T21:12:11.511Z,23.60
2023-04-16T21:14:37.818Z,23.65
2023-04-16T21:17:04.114Z,23.58
2023-04-16T21:19:30.511Z,22.17
2023-04-16T21:21:56.811Z,23.45
2023-04-16T21:24:23.113Z,22.92
2023-04-16T21:26:49.451Z,23.13
2023-04-16T21:29:15.773Z,24.80
2023-04-16T21:31:42.128Z,23.38
2023-04-16T21:34:08.468Z,23.75
2023-04-16T21:36:34.777Z,23.60
2023-04-16T21:39:01.085Z,24.70
2023-04-16T21:41:27.554Z,24.58
2023-04-16T21:43:53.898Z,24.33
2023-04-16T21:46:20.245Z,23.15
2023-04-16T21:48:46.542Z,23.08
2023-04-16T21:51:12.849Z,25.05
2023-04-16T21:53:39.187Z,25.15
2023-04-16T21:56:06.304Z,25.27
2023-04-16T21:58:32.611Z,24.85
2023-04-16T22:00:58.920Z,24.33
2023-04-16T22:03:25.367Z,23.70
2023-04-16T22:05:57.571Z,23.77
2023-04-16T22:08:25.162Z,23.98
2023-04-16T22:10:51.616Z,25.90
2023-04-16T22:13:18.019Z,24.95
2023-04-16T22:15:44.520Z,23.25
2023-04-16T22:18:10.825Z,23.67
2023-04-16T22:20:37.149Z,22.15
2023-04-16T22:23:03.445Z,23.92
2023-04-16T22:25:29.782Z,21.92
2023-04-16T22:27:56.114Z,23.17
2023-04-16T22:30:22.469Z,22.23
2023-04-16T22:32:48.894Z,23.80
2023-04-16T22:35:15.342Z,22.27
2023-04-16T22:37:41.666Z,22.65
2023-04-16T22:40:08.656Z,22.08
2023-04-16T22:42:35.233Z,22.75
2023-04-16T22:45:01.555Z,23.08
2023-04-16T22:47:27.953Z,22.52
2023-04-16T22:49:54.337Z,24.50
2023-04-16T22:52:20.636Z,23.67
2023-04-16T22:54:46.934Z,23.23
2023-04-16T22:57:13.255Z,23.75
2023-04-16T22:59:39.546Z,23.30
2023-04-16T23:02:05.951Z,23.25
2023-04-16T23:04:32.481Z,23.30
2023-04-16T23:06:58.981Z,24.33
2023-04-16T23:09:25.283Z,24.85
2023-04-16T23:11:51.631Z,26.27
2023-04-16T23:14:17.971Z,27.63
2023-04-16T23:16:44.279Z,28.05
2023-04-16T23:19:10.831Z,28.63
2023-04-16T23:21:37.350Z,27.45
2023-04-16T23:24:03.869Z,28.10
2023-04-16T23:26:30.165Z,29.02
2023-04-16T23:28:56.464Z,29.98
2023-04-16T23:31:22.803Z,28.50
2023-04-16T23:33:49.180Z,28.65
2023-04-16T23:36:15.489Z,28.52
2023-04-16T23:38:41.865Z,30.08
2023-04-16T23:41:08.177Z,30.42
2023-04-16T23:43:34.482Z,28.98
2023-04-16T23:46:00.951Z,29.95
2023-04-16T23:48:27.734Z,29.95
2023-04-16T23:50:54.165Z,30.02
2023-04-16T23:53:20.492Z,30.25
2023-04-16T23:55:46.796Z,31.50
2023-04-16T23:58:13.108Z,31.48
